Time;durP1;ratioP1;P1;durP2;ratioP2;P2;SDS_P1;SDS_P2;PMS_P1;PMS_P2;Temp;Humidity;BMP_temperature;BMP_pressure;BME280_temperature;BME280_humidity;BME280_pressure;Samples;Min_cycle;Max_cycle;Signal;HPM_P1;HPM_P2
2023/03/24 00:02:09;;;;;;;8.07;3.33;;;12.00;99.90;;;;;;5070856;28;20531;-75
2023/03/24 00:04:35;;;;;;;;;;;11.70;99.90;;;;;;5081881;28;20037;-75
2023/03/24 00:07:03;;;;;;;10.48;3.70;;;11.90;99.90;;;;;;5072766;28;19962;-75
2023/03/24 00:09:29;;;;;;;9.82;3.63;;;11.80;99.90;;;;;;5058790;28;20040;-75
2023/03/24 00:11:56;;;;;;;5.97;3.50;;;11.70;99.90;;;;;;5066125;28;20093;-76
2023/03/24 00:14:22;;;;;;;7.38;3.50;;;12.00;99.90;;;;;;5089643;28;20433;-76
2023/03/24 00:16:49;;;;;;;6.32;3.40;;;11.70;99.90;;;;;;5079181;28;20048;-76
2023/03/24 00:19:15;;;;;;;6.70;3.47;;;11.90;99.90;;;;;;5082449;28;20097;-75
2023/03/24 00:21:43;;;;;;;6.38;3.05;;;11.80;99.90;;;;;;5060912;28;20039;-76
2023/03/24 00:24:10;;;;;;;6.35;3.50;;;12.00;99.90;;;;;;5092387;28;20403;-76
2023/03/24 00:26:38;;;;;;;5.45;3.13;;;11.70;99.90;;;;;;5085538;28;20056;-75
2023/03/24 00:29:12;;;;;;;7.07;3.35;;;11.90;99.90;;;;;;5071376;28;20072;-76
2023/03/24 00:31:38;;;;;;;7.68;3.60;;;11.90;99.90;;;;;;5072278;28;20089;-75
2023/03/24 00:34:07;;;;;;;8.43;3.50;;;12.00;99.90;;;;;;5086324;28;20096;-76
2023/03/24 00:36:34;;;;;;;7.97;3.50;;;11.80;99.90;;;;;;5076423;28;20039;-76
2023/03/24 00:38:59;;;;;;;6.30;2.90;;;11.80;99.90;;;;;;5090884;28;20044;-76
2023/03/24 00:41:26;;;;;;;5.85;3.15;;;11.90;99.90;;;;;;5086576;28;20361;-75
2023/03/24 00:43:58;;;;;;;5.20;2.80;;;11.70;99.90;;;;;;5082778;28;20044;-75
2023/03/24 00:46:27;;;;;;;8.38;3.45;;;11.70;99.90;;;;;;5069903;28;20035;-76
2023/03/24 00:49:01;;;;;;;5.35;2.88;;;12.00;99.90;;;;;;5090607;28;20051;-75
2023/03/24 00:51:30;;;;;;;8.73;3.10;;;11.70;99.90;;;;;;5087028;28;20051;-75
2023/03/24 00:53:56;;;;;;;6.05;3.15;;;12.00;99.90;;;;;;5071790;28;20079;-75
2023/03/24 00:56:26;;;;;;;4.97;2.72;;;11.90;99.90;;;;;;5038584;28;20049;-74
2023/03/24 00:58:56;;;;;;;9.20;3.33;;;11.90;99.90;;;;;;5091964;28;20454;-75
2023/03/24 01:01:24;;;;;;;5.03;3.13;;;11.80;99.90;;;;;;5063961;28;20048;-76
2023/03/24 01:03:49;;;;;;;6.72;2.78;;;11.60;99.90;;;;;;5090413;28;20059;-75
2023/03/24 01:06:17;;;;;;;6.35;3.30;;;11.60;99.90;;;;;;5090693;28;20040;-77
2023/03/24 01:08:44;;;;;;;5.82;2.95;;;11.90;99.90;;;;;;5090137;28;20043;-76
2023/03/24 01:11:11;;;;;;;7.15;2.85;;;11.90;99.90;;;;;;5090098;28;20059;-75
2023/03/24 01:13:39;;;;;;;6.72;2.90;;;12.00;99.90;;;;;;5076553;28;20040;-75
2023/03/24 01:16:06;;;;;;;6.55;3.40;;;11.70;99.90;;;;;;5091661;28;20044;-76
2023/03/24 01:18:33;;;;;;;5.22;2.90;;;11.80;99.90;;;;;;5067953;28;20376;-76
2023/03/24 01:21:00;;;;;;;9.05;2.90;;;12.00;99.90;;;;;;5084649;28;20119;-75
2023/03/24 01:23:26;;;;;;;5.97;2.78;;;11.50;99.90;;;;;;5085853;28;20065;-76
2023/03/24 01:25:53;;;;;;;5.68;3.17;;;11.80;99.90;;;;;;5085665;28;20457;-76
2023/03/24 01:28:23;;;;;;;6.30;3.20;;;12.00;99.90;;;;;;5082921;28;20052;-76
2023/03/24 01:30:53;;;;;;;4.55;2.55;;;12.00;99.90;;;;;;5090132;28;20499;-75
2023/03/24 01:33:19;;;;;;;5.50;2.63;;;11.50;99.90;;;;;;5060190;28;20076;-76
2023/03/24 01:35:45;;;;;;;4.43;2.80;;;11.60;99.90;;;;;;5081343;28;20039;-76
2023/03/24 01:38:12;;;;;;;6.47;2.90;;;11.80;99.90;;;;;;5080698;28;20040;-76
2023/03/24 01:40:42;;;;;;;4.22;2.53;;;12.00;99.90;;;;;;5082187;28;20123;-76
2023/03/24 01:43:20;;;;;;;8.02;2.92;;;12.10;99.90;;;;;;5086558;28;20388;-76
2023/03/24 01:46:17;;;;;;;7.72;2.85;;;12.20;99.90;;;;;;5074744;28;20048;-76
2023/03/24 01:48:43;;;;;;;5.43;2.42;;;12.20;99.90;;;;;;5073224;28;20162;-75
2023/03/24 01:51:40;;;;;;;4.80;2.60;;;11.60;99.90;;;;;;5053066;28;20218;-75
2023/03/24 01:54:09;;;;;;;6.03;2.63;;;11.80;99.90;;;;;;5070092;28;20053;-76
2023/03/24 01:56:40;;;;;;;5.03;2.47;;;11.90;99.90;;;;;;5069671;28;20521;-76
2023/03/24 01:59:12;;;;;;;3.25;2.40;;;11.70;99.90;;;;;;5087691;28;20118;-76
2023/03/24 02:01:38;;;;;;;4.85;2.75;;;12.20;99.90;;;;;;5086143;28;20047;-76
2023/03/24 02:04:05;;;;;;;5.80;2.80;;;12.10;99.90;;;;;;5087719;28;20044;-76
2023/03/24 02:06:39;;;;;;;4.97;2.72;;;11.90;99.90;;;;;;5077352;28;20047;-76
2023/03/24 02:09:07;;;;;;;5.22;2.75;;;12.10;99.90;;;;;;5088377;28;20052;-76
2023/03/24 02:11:34;;;;;;;4.82;2.63;;;12.20;99.90;;;;;;5086263;28;20751;-76
2023/03/24 02:14:01;;;;;;;4.60;2.40;;;11.60;99.90;;;;;;5085797;28;20109;-76
2023/03/24 02:17:06;;;;;;;4.20;2.47;;;11.60;99.90;;;;;;5073685;28;20094;-76
2023/03/24 02:20:08;;;;;;;5.05;2.50;;;11.90;99.90;;;;;;5059365;28;20063;-75
2023/03/24 02:23:00;;;;;;;4.50;2.28;;;11.60;99.90;;;;;;5075233;28;20048;-75
2023/03/24 02:25:34;;;;;;;3.83;2.63;;;12.30;99.90;;;;;;5058107;28;20063;-76
2023/03/24 02:28:08;;;;;;;4.93;2.40;;;12.30;99.90;;;;;;5075249;28;20047;-75
2023/03/24 02:31:00;;;;;;;4.90;2.47;;;12.00;99.90;;;;;;5093359;28;20043;-75
2023/03/24 02:33:32;;;;;;;7.18;2.75;;;11.60;99.90;;;;;;5067800;28;20059;-74
2023/03/24 02:36:39;;;;;;;4.00;2.33;;;11.80;99.90;;;;;;5073719;28;20044;-75
2023/03/24 02:39:24;;;;;;;3.93;2.60;;;11.80;99.90;;;;;;5088346;28;20105;-74
2023/03/24 02:41:54;;;;;;;5.90;2.50;;;11.70;99.90;;;;;;5093207;28;20040;-75
2023/03/24 02:44:25;;;;;;;5.15;2.67;;;11.90;99.90;;;;;;5075639;28;20059;-75
2023/03/24 02:46:57;;;;;;;6.28;3.03;;;11.60;99.90;;;;;;5072715;28;20048;-75
2023/03/24 02:49:38;;;;;;;4.65;2.58;;;11.80;99.90;;;;;;5088944;28;20056;-75
2023/03/24 02:52:13;;;;;;;4.75;2.50;;;12.20;99.90;;;;;;5089988;28;20127;-75
2023/03/24 02:55:16;;;;;;;5.97;2.78;;;11.90;99.90;;;;;;5081768;28;20044;-76
2023/03/24 02:57:56;;;;;;;4.70;2.78;;;12.50;99.90;;;;;;5073679;28;20087;-76
2023/03/24 03:00:31;;;;;;;5.65;3.28;;;12.40;99.90;;;;;;5086083;28;20048;-75
2023/03/24 03:03:22;;;;;;;3.83;2.40;;;11.80;99.90;;;;;;5080489;28;20040;-75
2023/03/24 03:06:16;;;;;;;5.30;2.72;;;12.50;99.90;;;;;;5089853;28;20044;-75
2023/03/24 03:08:46;;;;;;;4.30;2.50;;;12.10;99.90;;;;;;5091326;28;20043;-76
2023/03/24 03:11:14;;;;;;;4.25;2.60;;;11.90;99.90;;;;;;5080522;28;20040;-75
2023/03/24 03:14:01;;;;;;;5.15;2.75;;;12.10;99.90;;;;;;5080102;28;20081;-75
2023/03/24 03:16:38;;;;;;;3.53;2.50;;;11.90;99.90;;;;;;5087753;28;20068;-75
2023/03/24 03:19:16;;;;;;;4.18;2.40;;;12.50;99.90;;;;;;5081353;28;20056;-77
2023/03/24 03:21:44;;;;;;;4.93;2.88;;;12.10;99.90;;;;;;5076095;28;20521;-76
2023/03/24 03:24:15;;;;;;;3.53;2.30;;;12.50;99.90;;;;;;5087560;28;20147;-76
2023/03/24 03:26:44;;;;;;;4.18;2.25;;;12.20;99.90;;;;;;5078833;28;20086;-76
2023/03/24 03:29:20;;;;;;;3.10;1.95;;;12.30;99.90;;;;;;5083244;28;20050;-76
2023/03/24 03:31:58;;;;;;;4.25;2.20;;;12.10;99.90;;;;;;5076062;28;20036;-76
2023/03/24 03:34:47;;;;;;;3.45;1.88;;;12.10;99.90;;;;;;5082612;28;20043;-75
2023/03/24 03:37:35;;;;;;;2.75;1.83;;;12.20;99.90;;;;;;5075261;28;20076;-75
2023/03/24 03:40:11;;;;;;;2.22;1.55;;;12.20;99.90;;;;;;5079164;28;20129;-76
2023/03/24 03:42:37;;;;;;;3.20;1.80;;;12.00;99.90;;;;;;5070379;28;20495;-75
2023/03/24 03:45:03;;;;;;;;;;;11.80;99.90;;;;;;5063545;28;20094;-76
2023/03/24 03:47:30;;;;;;;4.40;1.75;;;11.80;99.90;;;;;;5070589;28;19967;-75
2023/03/24 03:49:55;;;;;;;3.90;1.80;;;11.60;99.90;;;;;;5082270;28;20055;-75
2023/03/24 03:52:21;;;;;;;4.13;1.92;;;11.70;99.90;;;;;;5059018;28;20044;-75
2023/03/24 03:54:48;;;;;;;3.45;1.60;;;11.60;99.90;;;;;;5077734;28;20048;-75
2023/03/24 03:57:14;;;;;;;4.00;1.58;;;11.60;99.90;;;;;;5078404;28;20143;-75
2023/03/24 03:59:40;;;;;;;4.50;1.65;;;11.60;99.90;;;;;;5079910;28;20039;-76
2023/03/24 04:02:51;;;;;;;3.60;1.52;;;11.50;99.90;;;;;;5062709;28;20044;-76
2023/03/24 04:05:26;;;;;;;4.82;1.60;;;11.40;99.90;;;;;;5080953;28;20479;-76
2023/03/24 04:08:04;;;;;;;4.88;1.80;;;11.40;99.90;;;;;;5084429;28;20032;-75
2023/03/24 04:10:56;;;;;;;3.47;1.25;;;11.30;99.90;;;;;;5073434;28;20044;-76
2023/03/24 04:13:34;;;;;;;3.58;1.70;;;11.30;99.90;;;;;;5055150;28;20135;-76
2023/03/24 04:16:17;;;;;;;8.02;1.40;;;11.20;99.90;;;;;;5070960;28;20131;-75
2023/03/24 04:18:49;;;;;;;7.90;1.25;;;11.20;99.90;;;;;;5070719;28;20178;-76
2023/03/24 04:21:47;;;;;;;5.43;1.30;;;11.10;99.90;;;;;;5067339;28;20058;-75
2023/03/24 04:24:44;;;;;;;6.60;1.65;;;11.10;99.90;;;;;;5059152;28;20380;-76
2023/03/24 04:27:26;;;;;;;6.45;1.30;;;11.00;99.90;;;;;;5064761;28;20036;-76
2023/03/24 04:30:13;;;;;;;6.40;1.30;;;10.90;99.90;;;;;;5078393;28;20035;-76
2023/03/24 04:32:45;;;;;;;5.53;1.40;;;10.80;99.90;;;;;;5063641;28;20044;-76
2023/03/24 04:35:25;;;;;;;6.63;1.40;;;10.80;99.90;;;;;;5084366;28;20498;-76
2023/03/24 04:37:53;;;;;;;3.85;1.27;;;10.80;99.90;;;;;;5072088;28;20048;-76
2023/03/24 04:40:21;;;;;;;4.57;1.17;;;10.70;99.90;;;;;;5075534;28;20042;-76
2023/03/24 04:42:55;;;;;;;5.03;1.17;;;10.60;99.90;;;;;;5075222;28;20032;-76
2023/03/24 04:45:24;;;;;;;6.10;1.35;;;10.50;99.90;;;;;;5069034;28;20530;-76
2023/03/24 04:47:57;;;;;;;6.35;1.15;;;10.50;99.90;;;;;;5064465;28;20043;-75
2023/03/24 04:50:38;;;;;;;7.78;1.50;;;10.40;99.90;;;;;;5077347;28;20055;-76
2023/03/24 04:53:07;;;;;;;8.40;2.42;;;10.40;99.90;;;;;;5087585;28;20044;-76
2023/03/24 04:56:03;;;;;;;6.47;1.23;;;10.30;99.90;;;;;;5078980;28;20044;-76
2023/03/24 04:58:29;;;;;;;5.40;1.40;;;10.30;99.90;;;;;;5077411;28;20043;-76
2023/03/24 05:00:57;;;;;;;3.08;0.98;;;10.30;99.90;;;;;;5085418;28;20197;-76
2023/03/24 05:03:24;;;;;;;3.88;1.23;;;10.10;99.90;;;;;;5052387;28;20047;-76
2023/03/24 05:05:51;;;;;;;7.18;2.05;;;10.10;99.90;;;;;;5070973;28;20060;-76
2023/03/24 05:08:17;;;;;;;9.32;1.58;;;10.10;99.90;;;;;;5052947;28;20128;-76
2023/03/24 05:10:44;;;;;;;10.40;2.00;;;10.10;99.90;;;;;;5072706;28;20043;-75
2023/03/24 05:13:10;;;;;;;6.25;1.60;;;10.10;99.90;;;;;;5087021;28;20051;-76
2023/03/24 05:15:36;;;;;;;;;;;10.10;99.90;;;;;;5082636;28;20074;-76
2023/03/24 05:18:02;;;;;;;10.85;1.90;;;10.00;99.90;;;;;;5069034;28;19966;-76
2023/03/24 05:20:28;;;;;;;8.93;1.92;;;10.10;99.90;;;;;;5084034;28;20045;-76
2023/03/24 05:22:54;;;;;;;6.38;1.42;;;10.10;99.90;;;;;;5073889;28;20092;-75
2023/03/24 05:25:20;;;;;;;11.40;2.20;;;10.10;99.90;;;;;;5063454;28;20028;-75
2023/03/24 05:27:46;;;;;;;6.95;2.22;;;10.00;99.90;;;;;;5089640;28;20509;-77
2023/03/24 05:30:13;;;;;;;7.25;1.77;;;10.10;99.90;;;;;;5041028;28;20113;-75
2023/03/24 05:32:39;;;;;;;7.28;1.95;;;10.10;99.90;;;;;;5068973;28;20055;-77
2023/03/24 05:35:05;;;;;;;5.10;1.55;;;10.10;99.90;;;;;;5070527;28;20044;-75
2023/03/24 05:37:31;;;;;;;9.00;2.40;;;10.10;99.90;;;;;;5069578;28;20046;-75
2023/03/24 05:39:57;;;;;;;11.75;2.20;;;10.10;99.90;;;;;;5073744;28;20499;-75
2023/03/24 05:42:23;;;;;;;8.00;2.25;;;10.10;99.90;;;;;;5072809;28;20048;-75
2023/03/24 05:44:49;;;;;;;11.13;2.72;;;10.20;99.90;;;;;;5085353;28;20048;-76
2023/03/24 05:47:15;;;;;;;10.77;2.42;;;10.20;99.90;;;;;;5060471;28;20119;-75
2023/03/24 05:49:44;;;;;;;11.23;2.63;;;10.20;99.90;;;;;;5072173;28;20159;-76
2023/03/24 05:52:11;;;;;;;11.30;2.42;;;10.10;99.90;;;;;;5082976;28;20063;-75
2023/03/24 05:54:38;;;;;;;9.63;2.30;;;10.20;99.90;;;;;;5075023;28;20071;-77
2023/03/24 05:57:08;;;;;;;9.23;2.22;;;10.20;99.90;;;;;;5085222;28;20101;-77
2023/03/24 05:59:34;;;;;;;11.38;2.70;;;10.20;99.90;;;;;;5075046;28;20109;-76
2023/03/24 06:02:00;;;;;;;8.43;2.20;;;10.20;99.90;;;;;;5055844;28;20044;-76
2023/03/24 06:04:29;;;;;;;10.80;2.53;;;10.10;99.90;;;;;;5052380;28;20090;-77
2023/03/24 06:06:57;;;;;;;9.50;2.08;;;10.10;99.90;;;;;;5075059;28;20123;-77
2023/03/24 06:09:28;;;;;;;9.77;1.98;;;10.20;99.90;;;;;;5079009;28;20048;-77
2023/03/24 06:11:54;;;;;;;8.95;2.30;;;10.10;99.90;;;;;;5081496;28;20044;-77
2023/03/24 06:14:20;;;;;;;9.02;2.00;;;10.10;99.90;;;;;;5084356;28;20051;-80
2023/03/24 06:16:49;;;;;;;9.10;1.80;;;10.10;99.90;;;;;;5086414;28;20386;-76
2023/03/24 06:19:16;;;;;;;9.68;2.38;;;10.10;99.90;;;;;;5079519;28;20040;-76
2023/03/24 06:21:43;;;;;;;7.40;1.90;;;10.10;99.90;;;;;;5083550;28;20042;-75
2023/03/24 06:24:13;;;;;;;10.18;2.30;;;10.20;99.90;;;;;;5068548;28;20060;-76
2023/03/24 06:26:40;;;;;;;8.95;2.20;;;10.10;99.90;;;;;;5078647;28;20043;-75
2023/03/24 06:29:07;;;;;;;10.32;2.10;;;10.10;99.90;;;;;;5055121;28;20036;-74
2023/03/24 06:31:34;;;;;;;;;;;10.20;99.90;;;;;;5083569;28;20459;-76
2023/03/24 06:34:00;;;;;;;13.48;2.42;;;10.20;99.90;;;;;;5075519;28;19998;-76
2023/03/24 06:36:26;;;;;;;10.90;2.00;;;10.20;99.90;;;;;;5074518;28;20048;-75
2023/03/24 06:38:52;;;;;;;12.75;2.42;;;10.10;99.90;;;;;;5070754;28;20037;-75
2023/03/24 06:41:18;;;;;;;11.52;2.25;;;10.20;99.90;;;;;;5082317;28;20511;-75
2023/03/24 06:43:44;;;;;;;10.63;1.75;;;10.20;99.90;;;;;;5072633;28;20046;-75
2023/03/24 06:46:10;;;;;;;7.78;1.88;;;10.20;99.90;;;;;;5091614;28;20123;-76
2023/03/24 06:48:35;;;;;;;10.68;2.40;;;10.20;99.90;;;;;;5073775;28;20143;-74
2023/03/24 06:51:02;;;;;;;10.50;2.30;;;10.20;99.90;;;;;;5073764;28;20049;-75
2023/03/24 06:53:27;;;;;;;12.55;2.08;;;10.20;99.90;;;;;;5092843;28;20044;-75
2023/03/24 06:55:53;;;;;;;7.20;1.80;;;10.20;99.90;;;;;;5065380;28;20066;-76
2023/03/24 06:58:19;;;;;;;13.88;2.20;;;10.20;99.90;;;;;;5088966;28;20143;-76
2023/03/24 07:00:49;;;;;;;9.13;2.17;;;10.20;99.90;;;;;;5068988;28;20086;-76
2023/03/24 07:03:15;;;;;;;11.77;2.53;;;10.30;99.90;;;;;;5075480;28;20055;-76
2023/03/24 07:05:43;;;;;;;12.10;2.83;;;10.30;99.90;;;;;;5076084;28;20055;-76
2023/03/24 07:08:10;;;;;;;13.52;2.30;;;10.30;99.90;;;;;;5074610;28;20124;-76
2023/03/24 07:10:38;;;;;;;12.50;2.33;;;10.30;99.90;;;;;;5078027;28;20044;-75
2023/03/24 07:13:05;;;;;;;10.77;2.42;;;10.30;99.90;;;;;;5081929;28;20105;-76
2023/03/24 07:15:32;;;;;;;14.50;2.70;;;10.40;99.90;;;;;;5055906;28;20048;-75
2023/03/24 07:17:58;;;;;;;13.02;3.15;;;10.40;99.90;;;;;;5076106;28;20479;-76
2023/03/24 07:20:24;;;;;;;15.95;2.90;;;10.40;99.90;;;;;;5089194;28;20039;-75
2023/03/24 07:22:49;;;;;;;14.32;2.85;;;10.40;99.90;;;;;;5075379;28;20045;-75
2023/03/24 07:25:18;;;;;;;14.40;2.65;;;10.40;99.90;;;;;;5085549;28;20147;-75
2023/03/24 07:27:45;;;;;;;11.25;2.33;;;10.40;99.90;;;;;;5081471;28;20041;-76
2023/03/24 07:30:12;;;;;;;14.88;2.42;;;10.50;99.90;;;;;;5076297;28;20036;-76
2023/03/24 07:32:39;;;;;;;12.02;2.38;;;10.50;99.90;;;;;;5079555;28;20162;-76
2023/03/24 07:35:12;;;;;;;10.32;2.35;;;10.50;99.90;;;;;;5052326;28;20494;-75
2023/03/24 07:37:38;;;;;;;16.23;3.13;;;10.60;99.90;;;;;;5071261;28;20495;-76
2023/03/24 07:40:05;;;;;;;;;;;10.60;99.90;;;;;;5074869;28;20044;-76
2023/03/24 07:42:31;;;;;;;;;;;10.60;99.90;;;;;;5076603;28;20299;-76
2023/03/24 07:44:57;;;;;;;13.80;2.45;;;10.60;99.90;;;;;;5076156;28;19931;-76
2023/03/24 07:47:23;;;;;;;12.13;2.40;;;10.60;99.90;;;;;;5063119;28;20048;-76
2023/03/24 07:49:50;;;;;;;17.58;3.67;;;10.50;99.90;;;;;;5081652;28;20196;-76
2023/03/24 07:52:15;;;;;;;13.55;2.92;;;10.60;99.90;;;;;;5080784;28;20097;-76
2023/03/24 07:54:41;;;;;;;15.60;3.03;;;10.60;99.90;;;;;;5072328;28;20048;-76
2023/03/24 07:57:07;;;;;;;14.77;3.10;;;10.60;99.90;;;;;;5077152;28;20059;-77
2023/03/24 07:59:33;;;;;;;14.68;2.92;;;10.60;99.90;;;;;;5081009;28;20118;-76
2023/03/24 08:01:58;;;;;;;15.02;2.80;;;10.70;99.90;;;;;;5073914;28;20484;-75
2023/03/24 08:04:26;;;;;;;14.02;2.88;;;10.70;99.90;;;;;;5080012;28;20071;-76
2023/03/24 08:06:52;;;;;;;12.00;2.50;;;10.70;99.90;;;;;;5083965;28;20039;-77
2023/03/24 08:09:18;;;;;;;15.93;3.00;;;10.80;99.90;;;;;;5061180;28;20406;-75
2023/03/24 08:11:44;;;;;;;15.63;3.30;;;10.70;99.90;;;;;;5073578;28;20033;-76
2023/03/24 08:14:10;;;;;;;19.27;2.88;;;10.70;99.90;;;;;;5080531;28;20052;-76
2023/03/24 08:16:39;;;;;;;16.60;3.08;;;10.80;99.90;;;;;;5081649;28;20655;-76
2023/03/24 08:19:05;;;;;;;14.43;2.88;;;10.80;99.90;;;;;;5084919;28;20044;-76
2023/03/24 08:21:30;;;;;;;21.55;3.90;;;10.80;99.90;;;;;;5082304;28;20044;-76
2023/03/24 08:23:56;;;;;;;18.60;2.58;;;10.80;99.90;;;;;;5075099;28;20524;-76
2023/03/24 08:26:25;;;;;;;14.80;2.97;;;11.00;99.90;;;;;;5063276;28;20047;-76
2023/03/24 08:28:52;;;;;;;14.25;2.90;;;11.10;99.90;;;;;;5076656;28;20523;-75
2023/03/24 08:31:17;;;;;;;;;;;11.10;99.90;;;;;;5070704;28;20043;-75
2023/03/24 08:33:43;;;;;;;13.98;2.67;;;11.20;99.90;;;;;;5072567;28;20283;-75
2023/03/24 08:36:09;;;;;;;18.13;3.45;;;11.20;99.90;;;;;;5062353;28;20036;-75
2023/03/24 08:38:37;;;;;;;15.70;3.38;;;11.20;99.90;;;;;;5065795;28;20052;-76
2023/03/24 08:41:05;;;;;;;11.80;3.35;;;11.30;99.90;;;;;;5073284;28;20110;-74
2023/03/24 08:43:33;;;;;;;14.20;2.85;;;11.30;99.90;;;;;;5071796;28;20048;-74
2023/03/24 08:46:00;;;;;;;13.15;2.55;;;11.30;99.90;;;;;;5091310;28;20584;-73
2023/03/24 08:48:28;;;;;;;14.70;3.10;;;11.30;99.90;;;;;;5091150;28;20040;-74
2023/03/24 08:50:55;;;;;;;19.55;4.15;;;11.40;99.90;;;;;;5091006;28;20059;-74
2023/03/24 08:53:21;;;;;;;15.68;2.90;;;11.60;99.90;;;;;;5074241;28;20118;-74
2023/03/24 08:55:47;;;;;;;18.65;3.38;;;11.80;99.90;;;;;;5091429;28;20458;-73
2023/03/24 08:58:18;;;;;;;17.35;3.08;;;11.80;99.90;;;;;;5091302;28;20039;-74
2023/03/24 09:00:45;;;;;;;15.10;3.53;;;11.70;99.90;;;;;;5091251;28;20052;-73
2023/03/24 09:03:17;;;;;;;11.45;2.53;;;11.70;99.90;;;;;;5090538;28;20051;-74
2023/03/24 09:05:44;;;;;;;20.10;3.25;;;11.60;99.90;;;;;;5091775;28;20402;-73
2023/03/24 09:08:11;;;;;;;14.15;2.60;;;11.80;99.90;;;;;;5090643;28;20047;-73
2023/03/24 09:10:38;;;;;;;14.88;3.17;;;11.90;99.90;;;;;;5091371;28;20080;-74
2023/03/24 09:13:04;;;;;;;14.10;3.22;;;11.90;99.90;;;;;;5074134;28;20138;-74
2023/03/24 09:15:30;;;;;;;13.23;2.72;;;11.90;99.90;;;;;;5090889;28;20140;-74
2023/03/24 09:17:56;;;;;;;15.20;3.28;;;11.90;99.90;;;;;;5091007;28;20119;-73
2023/03/24 09:20:21;;;;;;;15.43;2.95;;;11.90;99.90;;;;;;5090820;28;20040;-73
2023/03/24 09:22:47;;;;;;;13.50;2.75;;;11.90;99.90;;;;;;5073968;28;20079;-73
2023/03/24 09:25:16;;;;;;;12.55;2.60;;;11.80;99.90;;;;;;5090819;28;20109;-74
2023/03/24 09:27:42;;;;;;;14.55;3.13;;;11.90;99.90;;;;;;5091000;28;20043;-74
2023/03/24 09:30:09;;;;;;;15.75;3.50;;;12.10;99.90;;;;;;5091128;28;20040;-74
2023/03/24 09:32:35;;;;;;;13.82;3.00;;;12.40;99.90;;;;;;5093487;28;20047;-73
2023/03/24 09:35:01;;;;;;;;;;;12.40;99.90;;;;;;5091870;28;20114;-73
2023/03/24 09:37:31;;;;;;;17.90;3.00;;;12.50;99.90;;;;;;5091243;28;20359;-73
2023/03/24 09:39:58;;;;;;;13.85;2.90;;;12.60;99.90;;;;;;5090982;28;20036;-74
2023/03/24 09:42:27;;;;;;;12.13;2.40;;;12.60;99.90;;;;;;5065499;28;20055;-74
2023/03/24 09:44:58;;;;;;;15.73;2.90;;;12.60;97.80;;;;;;5070353;28;20491;-73
2023/03/24 09:47:35;;;;;;;15.07;3.15;;;12.70;99.90;;;;;;5070869;28;20040;-73
2023/03/24 09:50:41;;;;;;;11.50;2.53;;;12.70;99.90;;;;;;5070272;28;20114;-73
2023/03/24 09:53:18;;;;;;;11.50;2.42;;;12.60;92.30;;;;;;5031484;28;20049;-74
2023/03/24 09:55:44;;;;;;;15.57;2.78;;;12.50;46.00;;;;;;5070485;28;20045;-73
2023/03/24 09:58:12;;;;;;;13.82;3.00;;;12.30;71.00;;;;;;5070636;28;20117;-73
2023/03/24 10:00:46;;;;;;;17.20;2.97;;;12.20;82.30;;;;;;5070623;28;20131;-74
2023/03/24 10:03:21;;;;;;;14.95;2.75;;;12.20;94.90;;;;;;5070244;28;20051;-74
2023/03/24 10:06:03;;;;;;;14.77;2.92;;;12.40;94.00;;;;;;5070451;28;20053;-74
2023/03/24 10:08:34;;;;;;;13.18;2.83;;;12.50;84.40;;;;;;5053831;28;20080;-73
2023/03/24 10:11:12;;;;;;;15.98;2.60;;;12.70;68.90;;;;;;5070231;28;20392;-74
2023/03/24 10:13:53;;;;;;;10.85;2.63;;;12.70;51.80;;;;;;5070389;28;20048;-73
2023/03/24 10:16:43;;;;;;;12.00;2.28;;;12.60;26.70;;;;;;5070048;28;20498;-74
2023/03/24 10:19:14;;;;;;;12.25;2.38;;;12.50;6.30;;;;;;5071287;28;20087;-73
2023/03/24 10:21:50;;;;;;;12.63;2.72;;;12.50;1.00;;;;;;5074425;28;20125;-73
2023/03/24 10:24:28;;;;;;;11.32;2.40;;;12.70;1.00;;;;;;5074139;28;20048;-73
2023/03/24 10:27:22;;;;;;;14.05;2.70;;;12.70;1.00;;;;;;5074018;28;20041;-73
2023/03/24 10:29:50;;;;;;;12.55;2.88;;;12.90;1.00;;;;;;5074103;28;20070;-73
2023/03/24 10:32:27;;;;;;;10.82;2.58;;;12.80;1.00;;;;;;5057139;28;20531;-73
2023/03/24 10:35:06;;;;;;;13.73;2.55;;;12.70;1.00;;;;;;5073786;28;20182;-74
2023/03/24 10:37:32;;;;;;;13.23;2.60;;;12.80;1.00;;;;;;5073455;28;20053;-73
2023/03/24 10:39:59;;;;;;;11.38;2.65;;;13.00;1.00;;;;;;5073790;28;20048;-73
2023/03/24 10:42:30;;;;;;;12.07;2.60;;;13.20;1.00;;;;;;5075025;28;20098;-73
2023/03/24 10:44:56;;;;;;;12.70;2.17;;;13.30;1.00;;;;;;5073828;28;20044;-74
2023/03/24 10:47:26;;;;;;;13.85;2.78;;;13.50;1.00;;;;;;5073585;28;20048;-73
2023/03/24 10:49:59;;;;;;;8.70;2.25;;;13.50;1.00;;;;;;5073674;28;20427;-74
2023/03/24 10:52:25;;;;;;;10.93;2.30;;;13.60;1.00;;;;;;5073784;28;20041;-74
2023/03/24 10:55:05;;;;;;;13.32;2.63;;;13.80;1.00;;;;;;5057648;28;20345;-74
2023/03/24 10:57:34;;;;;;;9.38;2.10;;;14.00;1.00;;;;;;5073758;28;20118;-75
2023/03/24 11:00:18;;;;;;;10.60;2.00;;;14.00;1.00;;;;;;5073676;28;20050;-75
2023/03/24 11:02:44;;;;;;;9.55;2.50;;;14.30;1.00;;;;;;5073310;28;20561;-75
2023/03/24 11:05:21;;;;;;;9.43;2.17;;;14.30;1.00;;;;;;5056863;28;20044;-74
2023/03/24 11:07:49;;;;;;;10.32;2.45;;;14.30;1.00;;;;;;5057252;28;20080;-74
2023/03/24 11:10:24;;;;;;;10.23;2.70;;;14.20;1.00;;;;;;5073561;28;20119;-74
2023/03/24 11:12:52;;;;;;;13.23;2.85;;;14.30;1.00;;;;;;5073286;28;20142;-73
2023/03/24 11:15:29;;;;;;;13.80;2.63;;;14.10;1.00;;;;;;5073332;28;20051;-73
2023/03/24 11:17:56;;;;;;;11.40;2.45;;;14.30;1.00;;;;;;5074296;28;20123;-73
2023/03/24 11:20:32;;;;;;;10.20;2.60;;;14.40;1.00;;;;;;5073324;28;20369;-74
2023/03/24 11:23:00;;;;;;;10.98;2.47;;;14.40;1.00;;;;;;5073460;28;20124;-74
2023/03/24 11:25:28;;;;;;;8.45;2.13;;;14.70;1.00;;;;;;5073286;28;20127;-73
2023/03/24 11:28:07;;;;;;;10.77;2.50;;;15.00;1.00;;;;;;5072731;28;20041;-73
2023/03/24 11:30:44;;;;;;;10.65;2.40;;;14.90;99.90;;;;;;5073213;28;20044;-74
2023/03/24 11:33:35;;;;;;;9.75;2.38;;;15.00;99.90;;;;;;5074925;28;20078;-73
2023/03/24 11:36:23;;;;;;;11.95;2.63;;;15.00;99.90;;;;;;5073303;28;20101;-73
2023/03/24 11:39:13;;;;;;;9.48;2.53;;;14.90;99.90;;;;;;5072440;28;20054;-75
2023/03/24 11:41:44;;;;;;;11.13;2.55;;;15.00;99.90;;;;;;5072388;28;20131;-74
2023/03/24 11:44:30;;;;;;;10.30;2.20;;;15.30;99.90;;;;;;5072124;28;20048;-74
2023/03/24 11:47:21;;;;;;;12.45;3.17;;;14.80;99.90;;;;;;5073186;28;20055;-74
2023/03/24 11:50:04;;;;;;;7.03;2.10;;;14.70;99.90;;;;;;5071478;28;20088;-73
2023/03/24 11:52:35;;;;;;;9.40;2.28;;;14.10;99.90;;;;;;5070831;28;20048;-72
2023/03/24 11:55:11;;;;;;;10.80;2.50;;;13.60;99.90;;;;;;5078532;28;20380;-73
2023/03/24 11:57:51;;;;;;;8.13;2.30;;;13.40;99.90;;;;;;5077825;28;20060;-74
2023/03/24 12:00:26;;;;;;;13.27;2.67;;;13.70;99.90;;;;;;5062137;28;20067;-74
2023/03/24 12:03:19;;;;;;;7.93;2.17;;;14.00;99.90;;;;;;5082964;28;20048;-74
2023/03/24 12:05:51;;;;;;;8.65;2.08;;;14.00;99.90;;;;;;5090987;28;20044;-74
2023/03/24 12:08:31;;;;;;;11.57;2.30;;;13.90;99.90;;;;;;5090982;28;20325;-73
2023/03/24 12:11:34;;;;;;;11.55;2.38;;;13.70;99.90;;;;;;5091670;28;20071;-73
2023/03/24 12:14:03;;;;;;;10.07;2.28;;;14.00;99.90;;;;;;5091317;28;20052;-74
2023/03/24 12:17:07;;;;;;;9.75;2.40;;;13.80;99.90;;;;;;5074802;28;20395;-75
2023/03/24 12:19:56;;;;;;;7.72;1.90;;;14.20;99.90;;;;;;5073342;28;20052;-74
2023/03/24 12:22:33;;;;;;;9.20;2.45;;;14.60;99.90;;;;;;5090104;28;20556;-74
2023/03/24 12:25:30;;;;;;;8.40;2.08;;;14.80;99.90;;;;;;5091184;28;20075;-74
2023/03/24 12:28:15;;;;;;;8.60;2.28;;;14.60;99.90;;;;;;5091430;28;20046;-74
2023/03/24 12:30:58;;;;;;;12.18;2.10;;;14.60;99.90;;;;;;5092618;28;20356;-73
2023/03/24 12:33:39;;;;;;;8.60;2.00;;;14.50;99.90;;;;;;5090888;28;20380;-73
2023/03/24 12:36:13;;;;;;;10.27;2.13;;;14.60;99.90;;;;;;5090836;28;20202;-74
2023/03/24 12:38:58;;;;;;;9.65;2.10;;;14.70;99.90;;;;;;5073920;28;20227;-73
2023/03/24 12:41:47;;;;;;;9.57;2.50;;;14.30;99.90;;;;;;5090608;28;20487;-73
2023/03/24 12:44:39;;;;;;;8.10;2.17;;;14.40;99.90;;;;;;5070839;28;20048;-73
2023/03/24 12:47:23;;;;;;;10.40;2.30;;;14.70;99.90;;;;;;5070781;28;20505;-73
2023/03/24 12:50:12;;;;;;;12.52;2.47;;;14.60;99.90;;;;;;5070687;28;20052;-73
2023/03/24 12:52:59;;;;;;;9.57;2.00;;;14.80;99.90;;;;;;5067776;28;20452;-73
2023/03/24 12:55:54;;;;;;;11.65;2.13;;;15.00;99.90;;;;;;5070762;28;20332;-74
2023/03/24 12:58:29;;;;;;;9.93;2.28;;;15.00;99.90;;;;;;5068735;28;20060;-73
2023/03/24 13:01:13;;;;;;;9.43;2.25;;;14.70;99.90;;;;;;5053759;28;20036;-74
2023/03/24 13:04:09;;;;;;;10.07;2.38;;;14.80;99.90;;;;;;5070362;28;20044;-74
2023/03/24 13:06:47;;;;;;;11.68;2.45;;;15.20;99.90;;;;;;5070296;28;20106;-74
2023/03/24 13:09:24;;;;;;;10.95;2.35;;;15.20;99.90;;;;;;5070429;28;20151;-73
2023/03/24 13:12:17;;;;;;;9.77;2.08;;;15.20;99.90;;;;;;5070290;28;20415;-72
2023/03/24 13:14:49;;;;;;;8.63;2.00;;;15.00;99.90;;;;;;5069774;28;20107;-73